sensor_id;sensor_type;location;lat;lon;timestamp;pressure;altitude;pressure_sealevel;temperature;humidity
62055;BME280;48653;51.742;-1.256;2023-03-23T00:03:45;98877.62;;;7.51;60.64
62055;BME280;48653;51.742;-1.256;2023-03-23T00:06:09;98886.65;;;7.72;61.04
62055;BME280;48653;51.742;-1.256;2023-03-23T00:08:36;98889.80;;;7.57;61.28
62055;BME280;48653;51.742;-1.256;2023-03-23T00:11:00;98885.88;;;7.42;62.36
62055;BME280;48653;51.742;-1.256;2023-03-23T00:13:26;98894.00;;;8.02;60.69
62055;BME280;48653;51.742;-1.256;2023-03-23T00:15:50;98893.12;;;8.52;59.44
62055;BME280;48653;51.742;-1.256;2023-03-23T00:18:16;98891.69;;;8.53;58.86
62055;BME280;48653;51.742;-1.256;2023-03-23T00:20:41;98901.22;;;8.12;60.19
62055;BME280;48653;51.742;-1.256;2023-03-23T00:23:06;98905.99;;;7.64;61.14
62055;BME280;48653;51.742;-1.256;2023-03-23T00:25:31;98908.83;;;7.60;61.14
62055;BME280;48653;51.742;-1.256;2023-03-23T00:27:57;98908.07;;;7.82;61.05
62055;BME280;48653;51.742;-1.256;2023-03-23T00:30:22;98911.58;;;7.50;61.30
62055;BME280;48653;51.742;-1.256;2023-03-23T00:32:47;98917.46;;;7.70;60.61
62055;BME280;48653;51.742;-1.256;2023-03-23T00:35:12;98917.73;;;8.22;59.28
62055;BME280;48653;51.742;-1.256;2023-03-23T00:37:37;98919.24;;;8.00;59.76
62055;BME280;48653;51.742;-1.256;2023-03-23T00:40:03;98917.54;;;7.51;60.79
62055;BME280;48653;51.742;-1.256;2023-03-23T00:42:28;98922.70;;;7.48;61.39
62055;BME280;48653;51.742;-1.256;2023-03-23T00:44:52;98924.98;;;7.20;61.44
62055;BME280;48653;51.742;-1.256;2023-03-23T00:47:18;98929.58;;;7.95;59.76
62055;BME280;48653;51.742;-1.256;2023-03-23T00:49:43;98927.05;;;7.74;60.07
62055;BME280;48653;51.742;-1.256;2023-03-23T00:52:09;98935.46;;;7.53;60.92
62055;BME280;48653;51.742;-1.256;2023-03-23T00:54:35;98934.87;;;7.61;60.77
62055;BME280;48653;51.742;-1.256;2023-03-23T00:57:00;98938.17;;;7.51;60.17
62055;BME280;48653;51.742;-1.256;2023-03-23T00:59:26;98947.81;;;7.77;60.18
62055;BME280;48653;51.742;-1.256;2023-03-23T01:01:51;98957.73;;;8.01;59.16
62055;BME280;48653;51.742;-1.256;2023-03-23T01:04:16;98959.15;;;7.98;58.88
62055;BME280;48653;51.742;-1.256;2023-03-23T01:06:43;98959.77;;;7.64;58.83
62055;BME280;48653;51.742;-1.256;2023-03-23T01:09:08;98960.45;;;8.31;57.49
62055;BME280;48653;51.742;-1.256;2023-03-23T01:11:32;98961.39;;;8.21;58.18
62055;BME280;48653;51.742;-1.256;2023-03-23T01:13:57;98963.19;;;7.37;60.11
62055;BME280;48653;51.742;-1.256;2023-03-23T01:16:23;98964.85;;;8.33;58.41
62055;BME280;48653;51.742;-1.256;2023-03-23T01:18:48;98966.11;;;8.36;58.04
62055;BME280;48653;51.742;-1.256;2023-03-23T01:21:18;98968.31;;;7.25;59.46
62055;BME280;48653;51.742;-1.256;2023-03-23T01:23:39;98969.42;;;7.80;59.52
62055;BME280;48653;51.742;-1.256;2023-03-23T01:26:05;98974.70;;;7.93;58.78
62055;BME280;48653;51.742;-1.256;2023-03-23T01:28:29;98977.52;;;7.67;59.50
62055;BME280;48653;51.742;-1.256;2023-03-23T01:31:00;98975.98;;;8.01;58.51
62055;BME280;48653;51.742;-1.256;2023-03-23T01:33:20;98974.71;;;7.03;60.41
62055;BME280;48653;51.742;-1.256;2023-03-23T01:35:46;98977.42;;;7.65;59.09
62055;BME280;48653;51.742;-1.256;2023-03-23T01:38:11;98980.22;;;7.18;59.81
62055;BME280;48653;51.742;-1.256;2023-03-23T01:40:36;98983.49;;;6.57;61.48
62055;BME280;48653;51.742;-1.256;2023-03-23T01:43:01;98988.71;;;7.32;60.50
62055;BME280;48653;51.742;-1.256;2023-03-23T01:45:31;98991.53;;;7.21;60.94
62055;BME280;48653;51.742;-1.256;2023-03-23T01:47:57;98993.20;;;6.97;60.90
62055;BME280;48653;51.742;-1.256;2023-03-23T01:50:18;98998.79;;;7.11;60.46
62055;BME280;48653;51.742;-1.256;2023-03-23T01:52:43;98995.56;;;7.35;59.68
62055;BME280;48653;51.742;-1.256;2023-03-23T01:55:09;98997.39;;;6.81;60.18
62055;BME280;48653;51.742;-1.256;2023-03-23T01:57:34;98998.07;;;7.04;60.01
62055;BME280;48653;51.742;-1.256;2023-03-23T02:00:02;98999.12;;;6.73;60.50
62055;BME280;48653;51.742;-1.256;2023-03-23T02:02:25;98997.15;;;7.25;59.02
62055;BME280;48653;51.742;-1.256;2023-03-23T02:04:49;99004.70;;;7.61;58.52
62055;BME280;48653;51.742;-1.256;2023-03-23T02:07:18;99001.96;;;7.78;57.20
62055;BME280;48653;51.742;-1.256;2023-03-23T02:09:40;99004.77;;;6.98;59.03
62055;BME280;48653;51.742;-1.256;2023-03-23T02:12:05;99002.72;;;7.91;56.83
62055;BME280;48653;51.742;-1.256;2023-03-23T02:14:30;98999.73;;;8.09;56.30
62055;BME280;48653;51.742;-1.256;2023-03-23T02:16:59;98999.42;;;7.52;57.11
62055;BME280;48653;51.742;-1.256;2023-03-23T02:19:40;98998.47;;;7.55;57.90
62055;BME280;48653;51.742;-1.256;2023-03-23T02:22:01;99002.56;;;7.81;56.61
62055;BME280;48653;51.742;-1.256;2023-03-23T02:24:29;99001.83;;;7.50;57.78
62055;BME280;48653;51.742;-1.256;2023-03-23T02:26:47;99000.52;;;7.28;58.46
62055;BME280;48653;51.742;-1.256;2023-03-23T02:29:13;99002.89;;;7.64;57.68
62055;BME280;48653;51.742;-1.256;2023-03-23T02:31:41;99003.83;;;7.15;57.04
62055;BME280;48653;51.742;-1.256;2023-03-23T02:33:56;99006.39;;;8.29;55.73
62055;BME280;48653;51.742;-1.256;2023-03-23T02:36:23;99009.33;;;7.79;56.45
62055;BME280;48653;51.742;-1.256;2023-03-23T02:38:50;99015.69;;;7.72;56.74
62055;BME280;48653;51.742;-1.256;2023-03-23T02:41:11;99016.57;;;7.69;56.93
62055;BME280;48653;51.742;-1.256;2023-03-23T02:43:39;99013.42;;;7.77;56.80
62055;BME280;48653;51.742;-1.256;2023-03-23T02:46:00;99007.36;;;8.15;56.41
62055;BME280;48653;51.742;-1.256;2023-03-23T02:48:29;99013.72;;;8.51;55.78
62055;BME280;48653;51.742;-1.256;2023-03-23T02:50:52;99013.36;;;7.91;56.35
62055;BME280;48653;51.742;-1.256;2023-03-23T02:53:20;99008.92;;;8.04;56.95
62055;BME280;48653;51.742;-1.256;2023-03-23T02:55:43;99007.29;;;7.74;56.30
62055;BME280;48653;51.742;-1.256;2023-03-23T02:58:07;99011.05;;;7.60;57.90
62055;BME280;48653;51.742;-1.256;2023-03-23T03:00:32;99012.76;;;7.30;58.40
62055;BME280;48653;51.742;-1.256;2023-03-23T03:02:57;99010.50;;;8.38;55.75
62055;BME280;48653;51.742;-1.256;2023-03-23T03:05:32;99006.53;;;7.90;56.26
62055;BME280;48653;51.742;-1.256;2023-03-23T03:07:55;99012.10;;;8.39;55.26
62055;BME280;48653;51.742;-1.256;2023-03-23T03:10:19;99012.58;;;8.50;55.58
62055;BME280;48653;51.742;-1.256;2023-03-23T03:12:46;99012.58;;;8.52;54.42
62055;BME280;48653;51.742;-1.256;2023-03-23T03:15:17;99013.39;;;8.04;55.52
62055;BME280;48653;51.742;-1.256;2023-03-23T03:17:31;99013.48;;;8.55;54.77
62055;BME280;48653;51.742;-1.256;2023-03-23T03:19:57;99012.98;;;7.97;55.82
62055;BME280;48653;51.742;-1.256;2023-03-23T03:22:21;99012.73;;;8.53;55.27
62055;BME280;48653;51.742;-1.256;2023-03-23T03:24:47;99011.19;;;7.68;56.75
62055;BME280;48653;51.742;-1.256;2023-03-23T03:27:14;99013.48;;;8.23;56.58
62055;BME280;48653;51.742;-1.256;2023-03-23T03:29:40;99011.77;;;7.69;57.09
62055;BME280;48653;51.742;-1.256;2023-03-23T03:32:04;99008.03;;;7.98;56.90
62055;BME280;48653;51.742;-1.256;2023-03-23T03:34:27;99002.76;;;8.08;56.77
62055;BME280;48653;51.742;-1.256;2023-03-23T03:36:54;99006.30;;;7.25;58.21
62055;BME280;48653;51.742;-1.256;2023-03-23T03:39:19;99005.89;;;7.45;57.55
62055;BME280;48653;51.742;-1.256;2023-03-23T03:41:44;99007.48;;;7.80;56.51
62055;BME280;48653;51.742;-1.256;2023-03-23T03:44:10;99005.31;;;7.39;57.29
62055;BME280;48653;51.742;-1.256;2023-03-23T03:46:35;99005.87;;;7.76;56.10
62055;BME280;48653;51.742;-1.256;2023-03-23T03:49:02;99005.94;;;7.71;56.08
62055;BME280;48653;51.742;-1.256;2023-03-23T03:51:27;99005.54;;;7.18;57.06
62055;BME280;48653;51.742;-1.256;2023-03-23T03:53:52;99001.10;;;7.04;57.76
62055;BME280;48653;51.742;-1.256;2023-03-23T03:56:17;99001.88;;;7.41;58.62
62055;BME280;48653;51.742;-1.256;2023-03-23T03:58:43;99001.87;;;7.28;58.32
62055;BME280;48653;51.742;-1.256;2023-03-23T04:01:08;99003.74;;;7.08;58.43
62055;BME280;48653;51.742;-1.256;2023-03-23T04:03:33;99002.89;;;7.25;59.26
62055;BME280;48653;51.742;-1.256;2023-03-23T04:05:58;99006.26;;;7.13;59.52
62055;BME280;48653;51.742;-1.256;2023-03-23T04:08:24;99008.66;;;6.96;59.56
62055;BME280;48653;51.742;-1.256;2023-03-23T04:10:49;99011.78;;;6.78;60.70
62055;BME280;48653;51.742;-1.256;2023-03-23T04:13:14;99014.14;;;7.37;59.07
62055;BME280;48653;51.742;-1.256;2023-03-23T04:15:40;99016.03;;;6.77;60.10
62055;BME280;48653;51.742;-1.256;2023-03-23T04:18:05;99016.88;;;7.49;57.79
62055;BME280;48653;51.742;-1.256;2023-03-23T04:20:31;99022.74;;;7.07;58.91
62055;BME280;48653;51.742;-1.256;2023-03-23T04:22:57;99025.42;;;7.04;58.96
62055;BME280;48653;51.742;-1.256;2023-03-23T04:25:22;99026.83;;;7.70;57.32
62055;BME280;48653;51.742;-1.256;2023-03-23T04:27:47;99027.22;;;7.92;56.51
62055;BME280;48653;51.742;-1.256;2023-03-23T04:30:13;99030.29;;;7.42;57.64
62055;BME280;48653;51.742;-1.256;2023-03-23T04:32:37;99032.43;;;7.52;58.37
62055;BME280;48653;51.742;-1.256;2023-03-23T04:35:02;99031.29;;;7.23;57.97
62055;BME280;48653;51.742;-1.256;2023-03-23T04:37:28;99037.12;;;6.55;59.09
62055;BME280;48653;51.742;-1.256;2023-03-23T04:39:53;99030.81;;;6.50;59.46
62055;BME280;48653;51.742;-1.256;2023-03-23T04:42:18;99026.51;;;6.86;59.31
62055;BME280;48653;51.742;-1.256;2023-03-23T04:44:44;99029.75;;;7.29;58.24
62055;BME280;48653;51.742;-1.256;2023-03-23T04:47:09;99034.02;;;6.80;58.74
62055;BME280;48653;51.742;-1.256;2023-03-23T04:49:35;99031.07;;;6.85;58.23
62055;BME280;48653;51.742;-1.256;2023-03-23T04:52:00;99034.42;;;7.15;58.15
62055;BME280;48653;51.742;-1.256;2023-03-23T04:54:25;99035.36;;;7.66;56.98
62055;BME280;48653;51.742;-1.256;2023-03-23T04:56:50;99037.81;;;6.83;58.02
62055;BME280;48653;51.742;-1.256;2023-03-23T04:59:15;99043.82;;;6.49;59.50
62055;BME280;48653;51.742;-1.256;2023-03-23T05:01:41;99042.47;;;6.70;59.50
62055;BME280;48653;51.742;-1.256;2023-03-23T05:04:06;99042.94;;;6.65;59.10
62055;BME280;48653;51.742;-1.256;2023-03-23T05:06:31;99045.82;;;7.02;58.15
62055;BME280;48653;51.742;-1.256;2023-03-23T05:08:57;99036.69;;;6.58;59.38
62055;BME280;48653;51.742;-1.256;2023-03-23T05:11:22;99042.04;;;6.76;59.27
62055;BME280;48653;51.742;-1.256;2023-03-23T05:13:48;99047.94;;;6.82;58.74
62055;BME280;48653;51.742;-1.256;2023-03-23T05:16:13;99048.46;;;6.45;59.62
62055;BME280;48653;51.742;-1.256;2023-03-23T05:18:38;99048.45;;;6.63;59.45
62055;BME280;48653;51.742;-1.256;2023-03-23T05:21:04;99047.86;;;6.53;59.79
62055;BME280;48653;51.742;-1.256;2023-03-23T05:23:29;99048.09;;;5.90;62.18
62055;BME280;48653;51.742;-1.256;2023-03-23T05:25:54;99048.49;;;6.57;60.17
62055;BME280;48653;51.742;-1.256;2023-03-23T05:28:19;99047.03;;;6.88;59.48
62055;BME280;48653;51.742;-1.256;2023-03-23T05:30:45;99045.43;;;7.49;57.62
62055;BME280;48653;51.742;-1.256;2023-03-23T05:33:10;99044.04;;;7.07;57.78
62055;BME280;48653;51.742;-1.256;2023-03-23T05:35:35;99041.35;;;7.55;57.95
62055;BME280;48653;51.742;-1.256;2023-03-23T05:38:00;99042.33;;;6.81;58.92
62055;BME280;48653;51.742;-1.256;2023-03-23T05:40:26;99041.55;;;7.08;57.94
62055;BME280;48653;51.742;-1.256;2023-03-23T05:42:52;99041.08;;;6.92;58.78
62055;BME280;48653;51.742;-1.256;2023-03-23T05:45:17;99041.60;;;6.84;58.64
62055;BME280;48653;51.742;-1.256;2023-03-23T05:47:41;99041.21;;;7.24;58.77
62055;BME280;48653;51.742;-1.256;2023-03-23T05:50:09;99037.00;;;7.00;58.76
62055;BME280;48653;51.742;-1.256;2023-03-23T05:52:32;99042.66;;;7.51;57.79
62055;BME280;48653;51.742;-1.256;2023-03-23T05:54:57;99042.42;;;7.25;57.69
62055;BME280;48653;51.742;-1.256;2023-03-23T05:57:22;99038.33;;;7.82;57.11
62055;BME280;48653;51.742;-1.256;2023-03-23T05:59:48;99034.44;;;7.45;57.31
62055;BME280;48653;51.742;-1.256;2023-03-23T06:02:12;99036.87;;;7.74;56.90
62055;BME280;48653;51.742;-1.256;2023-03-23T06:04:38;99031.83;;;7.52;57.48
62055;BME280;48653;51.742;-1.256;2023-03-23T06:07:03;99033.89;;;7.60;56.98
62055;BME280;48653;51.742;-1.256;2023-03-23T06:09:29;99028.95;;;8.12;56.10
62055;BME280;48653;51.742;-1.256;2023-03-23T06:11:54;99029.28;;;7.24;58.36
62055;BME280;48653;51.742;-1.256;2023-03-23T06:14:19;99029.98;;;6.83;60.64
62055;BME280;48653;51.742;-1.256;2023-03-23T06:16:44;99025.17;;;7.40;58.25
62055;BME280;48653;51.742;-1.256;2023-03-23T06:19:10;99022.29;;;7.59;57.77
62055;BME280;48653;51.742;-1.256;2023-03-23T06:21:35;99027.02;;;7.19;59.42
62055;BME280;48653;51.742;-1.256;2023-03-23T06:24:00;99028.23;;;7.39;60.05
62055;BME280;48653;51.742;-1.256;2023-03-23T06:26:30;99023.76;;;6.89;59.97
62055;BME280;48653;51.742;-1.256;2023-03-23T06:28:51;99026.88;;;6.84;60.03
62055;BME280;48653;51.742;-1.256;2023-03-23T06:31:17;99027.53;;;6.89;61.43
62055;BME280;48653;51.742;-1.256;2023-03-23T06:33:41;99023.27;;;6.62;61.06
62055;BME280;48653;51.742;-1.256;2023-03-23T06:36:08;99025.09;;;7.04;60.84
62055;BME280;48653;51.742;-1.256;2023-03-23T06:38:33;99025.98;;;6.94;60.64
62055;BME280;48653;51.742;-1.256;2023-03-23T06:40:58;99023.10;;;7.57;59.21
62055;BME280;48653;51.742;-1.256;2023-03-23T06:43:23;99023.39;;;7.64;58.54
62055;BME280;48653;51.742;-1.256;2023-03-23T06:45:49;99024.03;;;6.71;61.43
62055;BME280;48653;51.742;-1.256;2023-03-23T06:48:14;99028.51;;;7.81;59.09
62055;BME280;48653;51.742;-1.256;2023-03-23T06:50:42;99025.67;;;7.58;59.64
62055;BME280;48653;51.742;-1.256;2023-03-23T06:53:05;99022.36;;;7.17;60.73
62055;BME280;48653;51.742;-1.256;2023-03-23T06:55:31;99027.17;;;7.72;59.47
62055;BME280;48653;51.742;-1.256;2023-03-23T06:57:57;99028.57;;;7.85;59.07
62055;BME280;48653;51.742;-1.256;2023-03-23T07:00:23;99027.06;;;7.29;60.50
62055;BME280;48653;51.742;-1.256;2023-03-23T07:02:48;99029.62;;;7.68;60.88
62055;BME280;48653;51.742;-1.256;2023-03-23T07:05:13;99025.77;;;6.85;61.48
62055;BME280;48653;51.742;-1.256;2023-03-23T07:07:40;99023.54;;;7.42;61.11
62055;BME280;48653;51.742;-1.256;2023-03-23T07:10:06;99032.09;;;6.95;61.87
62055;BME280;48653;51.742;-1.256;2023-03-23T07:12:29;99030.79;;;7.67;60.43
62055;BME280;48653;51.742;-1.256;2023-03-23T07:14:55;99030.84;;;8.00;60.03
62055;BME280;48653;51.742;-1.256;2023-03-23T07:17:20;99024.33;;;7.83;60.11
62055;BME280;48653;51.742;-1.256;2023-03-23T07:19:45;99027.71;;;7.18;62.48
62055;BME280;48653;51.742;-1.256;2023-03-23T07:22:10;99028.62;;;8.02;60.77
62055;BME280;48653;51.742;-1.256;2023-03-23T07:24:35;99026.67;;;8.27;59.82
62055;BME280;48653;51.742;-1.256;2023-03-23T07:27:01;99027.31;;;7.93;61.23
62055;BME280;48653;51.742;-1.256;2023-03-23T07:29:26;99026.62;;;8.39;59.13
62055;BME280;48653;51.742;-1.256;2023-03-23T07:31:52;99023.98;;;8.47;59.81
62055;BME280;48653;51.742;-1.256;2023-03-23T07:34:17;99024.15;;;8.60;60.34
62055;BME280;48653;51.742;-1.256;2023-03-23T07:36:42;99028.81;;;8.09;61.02
62055;BME280;48653;51.742;-1.256;2023-03-23T07:39:08;99027.07;;;7.81;62.42
62055;BME280;48653;51.742;-1.256;2023-03-23T07:41:33;99033.64;;;7.48;63.41
62055;BME280;48653;51.742;-1.256;2023-03-23T07:43:59;99027.94;;;7.78;63.15
62055;BME280;48653;51.742;-1.256;2023-03-23T07:46:24;99027.75;;;8.36;62.11
62055;BME280;48653;51.742;-1.256;2023-03-23T07:48:50;99024.78;;;7.73;63.69
62055;BME280;48653;51.742;-1.256;2023-03-23T07:51:15;99025.56;;;7.29;64.37
62055;BME280;48653;51.742;-1.256;2023-03-23T07:53:41;99035.55;;;8.47;62.27
62055;BME280;48653;51.742;-1.256;2023-03-23T07:56:08;99036.32;;;8.00;63.77
62055;BME280;48653;51.742;-1.256;2023-03-23T07:58:32;99032.50;;;8.18;62.72
62055;BME280;48653;51.742;-1.256;2023-03-23T08:00:58;99032.31;;;8.76;61.39
62055;BME280;48653;51.742;-1.256;2023-03-23T08:03:24;99030.67;;;8.46;61.67
62055;BME280;48653;51.742;-1.256;2023-03-23T08:05:49;99037.22;;;8.53;60.96
62055;BME280;48653;51.742;-1.256;2023-03-23T08:08:15;99035.62;;;7.92;62.36
62055;BME280;48653;51.742;-1.256;2023-03-23T08:10:40;99038.58;;;8.94;60.50
62055;BME280;48653;51.742;-1.256;2023-03-23T08:13:06;99037.62;;;8.52;61.14
62055;BME280;48653;51.742;-1.256;2023-03-23T08:15:31;99033.59;;;8.48;61.21
62055;BME280;48653;51.742;-1.256;2023-03-23T08:17:57;99028.28;;;8.53;60.93
62055;BME280;48653;51.742;-1.256;2023-03-23T08:20:22;99020.59;;;8.11;61.14
62055;BME280;48653;51.742;-1.256;2023-03-23T08:22:51;99028.14;;;8.64;59.60
62055;BME280;48653;51.742;-1.256;2023-03-23T08:25:13;99039.00;;;8.53;60.07
62055;BME280;48653;51.742;-1.256;2023-03-23T08:27:38;99026.01;;;8.18;60.61
62055;BME280;48653;51.742;-1.256;2023-03-23T08:30:04;99032.75;;;8.58;60.43
62055;BME280;48653;51.742;-1.256;2023-03-23T08:32:28;99026.96;;;8.61;59.89
62055;BME280;48653;51.742;-1.256;2023-03-23T08:34:54;99039.54;;;8.23;61.16
62055;BME280;48653;51.742;-1.256;2023-03-23T08:37:19;99031.67;;;8.14;60.84
62055;BME280;48653;51.742;-1.256;2023-03-23T08:39:44;99022.73;;;8.59;60.87
62055;BME280;48653;51.742;-1.256;2023-03-23T08:42:10;99028.56;;;8.47;59.52
62055;BME280;48653;51.742;-1.256;2023-03-23T08:44:35;99032.74;;;8.83;58.62
62055;BME280;48653;51.742;-1.256;2023-03-23T08:47:01;99032.03;;;8.76;58.07
62055;BME280;48653;51.742;-1.256;2023-03-23T08:49:26;99037.75;;;8.98;58.61
62055;BME280;48653;51.742;-1.256;2023-03-23T08:51:51;99037.97;;;8.64;59.83
62055;BME280;48653;51.742;-1.256;2023-03-23T08:54:16;99029.13;;;9.20;58.52
62055;BME280;48653;51.742;-1.256;2023-03-23T08:56:42;99049.85;;;9.35;58.61
62055;BME280;48653;51.742;-1.256;2023-03-23T08:59:08;99048.63;;;9.32;58.93
62055;BME280;48653;51.742;-1.256;2023-03-23T09:01:33;99042.71;;;9.53;57.05
62055;BME280;48653;51.742;-1.256;2023-03-23T09:03:58;99050.95;;;9.34;57.85
62055;BME280;48653;51.742;-1.256;2023-03-23T09:06:24;99060.47;;;10.19;55.93
62055;BME280;48653;51.742;-1.256;2023-03-23T09:08:49;99051.00;;;9.51;57.40
62055;BME280;48653;51.742;-1.256;2023-03-23T09:11:15;99051.13;;;9.90;56.45
62055;BME280;48653;51.742;-1.256;2023-03-23T09:13:41;99051.18;;;9.58;57.88
62055;BME280;48653;51.742;-1.256;2023-03-23T09:16:07;99055.04;;;9.78;57.28
62055;BME280;48653;51.742;-1.256;2023-03-23T09:18:31;99053.57;;;9.58;57.05
62055;BME280;48653;51.742;-1.256;2023-03-23T09:20:56;99032.73;;;10.00;56.68
62055;BME280;48653;51.742;-1.256;2023-03-23T09:23:21;99026.87;;;10.49;57.08
62055;BME280;48653;51.742;-1.256;2023-03-23T09:25:47;99019.94;;;10.40;55.48
62055;BME280;48653;51.742;-1.256;2023-03-23T09:28:11;99026.02;;;11.36;53.12
62055;BME280;48653;51.742;-1.256;2023-03-23T09:30:38;99021.20;;;11.34;51.30
62055;BME280;48653;51.742;-1.256;2023-03-23T09:33:03;99033.36;;;11.91;53.10
62055;BME280;48653;51.742;-1.256;2023-03-23T09:35:28;99019.32;;;12.11;51.03
62055;BME280;48653;51.742;-1.256;2023-03-23T09:37:53;99031.37;;;11.03;50.62
62055;BME280;48653;51.742;-1.256;2023-03-23T09:40:20;99027.85;;;10.85;50.92
62055;BME280;48653;51.742;-1.256;2023-03-23T09:42:55;99020.16;;;10.71;52.04
62055;BME280;48653;51.742;-1.256;2023-03-23T09:45:17;99028.33;;;10.78;52.57
62055;BME280;48653;51.742;-1.256;2023-03-23T09:47:41;99019.73;;;11.10;53.31
62055;BME280;48653;51.742;-1.256;2023-03-23T09:50:07;99026.56;;;10.60;53.18
62055;BME280;48653;51.742;-1.256;2023-03-23T09:52:37;99024.41;;;10.96;52.91
62055;BME280;48653;51.742;-1.256;2023-03-23T09:54:53;99027.29;;;11.74;51.82
62055;BME280;48653;51.742;-1.256;2023-03-23T09:57:24;99048.35;;;10.69;54.13
62055;BME280;48653;51.742;-1.256;2023-03-23T09:59:49;99029.24;;;10.68;53.71
62055;BME280;48653;51.742;-1.256;2023-03-23T10:02:13;99030.03;;;10.37;53.84
62055;BME280;48653;51.742;-1.256;2023-03-23T10:04:38;99031.61;;;11.63;53.85
62055;BME280;48653;51.742;-1.256;2023-03-23T10:07:03;99024.92;;;11.73;51.33
62055;BME280;48653;51.742;-1.256;2023-03-23T10:09:24;99029.34;;;11.74;52.18
62055;BME280;48653;51.742;-1.256;2023-03-23T10:11:56;99033.54;;;12.10;50.15
62055;BME280;48653;51.742;-1.256;2023-03-23T10:14:25;99045.66;;;12.34;49.53
62055;BME280;48653;51.742;-1.256;2023-03-23T10:16:43;99050.39;;;12.19;49.14
62055;BME280;48653;51.742;-1.256;2023-03-23T10:19:11;99054.45;;;12.01;50.81
62055;BME280;48653;51.742;-1.256;2023-03-23T10:21:31;99048.18;;;11.59;52.12
62055;BME280;48653;51.742;-1.256;2023-03-23T10:23:58;99068.65;;;12.49;50.35
62055;BME280;48653;51.742;-1.256;2023-03-23T10:26:29;99057.84;;;12.18;49.81
62055;BME280;48653;51.742;-1.256;2023-03-23T10:28:48;99058.18;;;12.24;48.77
62055;BME280;48653;51.742;-1.256;2023-03-23T10:31:13;99056.80;;;12.90;45.81
62055;BME280;48653;51.742;-1.256;2023-03-23T10:33:39;99055.66;;;12.16;47.55
62055;BME280;48653;51.742;-1.256;2023-03-23T10:36:05;99054.32;;;13.29;45.84
62055;BME280;48653;51.742;-1.256;2023-03-23T10:38:29;99045.06;;;13.32;46.16
62055;BME280;48653;51.742;-1.256;2023-03-23T10:40:54;99040.24;;;12.82;45.79
62055;BME280;48653;51.742;-1.256;2023-03-23T10:43:16;99038.84;;;13.57;45.16
62055;BME280;48653;51.742;-1.256;2023-03-23T10:45:43;99037.93;;;14.88;44.32
62055;BME280;48653;51.742;-1.256;2023-03-23T10:48:12;99055.59;;;14.71;42.96
62055;BME280;48653;51.742;-1.256;2023-03-23T10:50:35;99046.38;;;15.08;43.45
62055;BME280;48653;51.742;-1.256;2023-03-23T10:52:59;99048.17;;;14.89;42.43
62055;BME280;48653;51.742;-1.256;2023-03-23T10:55:24;99040.21;;;14.99;42.95
62055;BME280;48653;51.742;-1.256;2023-03-23T10:57:59;99031.31;;;15.64;42.39
62055;BME280;48653;51.742;-1.256;2023-03-23T11:00:19;99048.87;;;15.29;42.53
62055;BME280;48653;51.742;-1.256;2023-03-23T11:02:41;99058.39;;;14.84;42.80
62055;BME280;48653;51.742;-1.256;2023-03-23T11:05:09;99046.16;;;15.22;42.54
62055;BME280;48653;51.742;-1.256;2023-03-23T11:07:31;99053.31;;;15.08;42.15
62055;BME280;48653;51.742;-1.256;2023-03-23T11:09:55;99054.88;;;13.64;43.91
62055;BME280;48653;51.742;-1.256;2023-03-23T11:12:20;99055.36;;;13.25;46.27
62055;BME280;48653;51.742;-1.256;2023-03-23T11:14:44;99049.88;;;13.04;46.38
62055;BME280;48653;51.742;-1.256;2023-03-23T11:19:35;99053.78;;;14.29;43.55
62055;BME280;48653;51.742;-1.256;2023-03-23T11:22:06;99054.56;;;13.68;46.54
62055;BME280;48653;51.742;-1.256;2023-03-23T11:24:26;99056.50;;;14.36;43.86
62055;BME280;48653;51.742;-1.256;2023-03-23T11:26:50;99049.50;;;14.95;43.39
62055;BME280;48653;51.742;-1.256;2023-03-23T11:29:17;99042.05;;;14.10;44.06
62055;BME280;48653;51.742;-1.256;2023-03-23T11:31:41;99056.33;;;14.18;43.52
62055;BME280;48653;51.742;-1.256;2023-03-23T11:34:11;99076.53;;;14.04;43.69
62055;BME280;48653;51.742;-1.256;2023-03-23T11:36:33;99063.98;;;14.59;43.25
62055;BME280;48653;51.742;-1.256;2023-03-23T11:38:55;99074.00;;;14.24;42.67
62055;BME280;48653;51.742;-1.256;2023-03-23T11:41:23;99068.94;;;13.56;43.64
62055;BME280;48653;51.742;-1.256;2023-03-23T11:43:46;99058.84;;;13.75;43.09
62055;BME280;48653;51.742;-1.256;2023-03-23T11:46:20;99058.32;;;14.45;41.60
62055;BME280;48653;51.742;-1.256;2023-03-23T11:48:42;99062.93;;;14.65;41.51
62055;BME280;48653;51.742;-1.256;2023-03-23T11:51:05;99071.62;;;14.65;40.52
62055;BME280;48653;51.742;-1.256;2023-03-23T11:53:34;99060.88;;;14.47;41.45
62055;BME280;48653;51.742;-1.256;2023-03-23T11:56:00;99055.71;;;14.20;42.16
62055;BME280;48653;51.742;-1.256;2023-03-23T11:58:19;99045.91;;;14.30;43.47
62055;BME280;48653;51.742;-1.256;2023-03-23T12:00:49;99025.26;;;13.30;45.76
62055;BME280;48653;51.742;-1.256;2023-03-23T12:03:14;99028.55;;;13.37;45.43
62055;BME280;48653;51.742;-1.256;2023-03-23T12:05:39;99037.93;;;13.27;48.55
62055;BME280;48653;51.742;-1.256;2023-03-23T12:08:12;99037.99;;;13.34;49.91
62055;BME280;48653;51.742;-1.256;2023-03-23T12:10:29;99031.19;;;12.91;49.62
62055;BME280;48653;51.742;-1.256;2023-03-23T12:12:56;99043.59;;;13.35;49.64
62055;BME280;48653;51.742;-1.256;2023-03-23T12:15:22;99046.88;;;12.67;50.89
62055;BME280;48653;51.742;-1.256;2023-03-23T12:17:49;99040.71;;;12.63;51.47
62055;BME280;48653;51.742;-1.256;2023-03-23T12:20:18;99041.66;;;12.98;49.96
62055;BME280;48653;51.742;-1.256;2023-03-23T12:22:40;99027.87;;;14.17;48.05
62055;BME280;48653;51.742;-1.256;2023-03-23T12:25:05;99031.79;;;14.40;46.93
62055;BME280;48653;51.742;-1.256;2023-03-23T12:27:28;99034.45;;;13.84;46.62
62055;BME280;48653;51.742;-1.256;2023-03-23T12:29:57;99051.98;;;13.85;46.32
62055;BME280;48653;51.742;-1.256;2023-03-23T12:32:30;99046.80;;;12.99;47.23
62055;BME280;48653;51.742;-1.256;2023-03-23T12:34:42;99056.76;;;13.14;47.43
62055;BME280;48653;51.742;-1.256;2023-03-23T12:37:15;99048.71;;;12.87;47.27
62055;BME280;48653;51.742;-1.256;2023-03-23T12:39:48;99038.74;;;13.22;47.18
62055;BME280;48653;51.742;-1.256;2023-03-23T12:42:00;99031.78;;;12.68;46.79
62055;BME280;48653;51.742;-1.256;2023-03-23T12:44:25;99011.04;;;12.54;46.84
62055;BME280;48653;51.742;-1.256;2023-03-23T12:46:54;99027.80;;;13.57;46.58
62055;BME280;48653;51.742;-1.256;2023-03-23T12:49:14;99043.14;;;13.51;44.91
62055;BME280;48653;51.742;-1.256;2023-03-23T12:51:38;99030.80;;;12.89;45.87